sensor_id;sensor_type;location;lat;lon;timestamp;pressure;altitude;pressure_sealevel;temperature;humidity
39295;BME280;52361;52.100;5.248;2023-04-05T00:01:05;102464.00000000001;;;4.82;96.77
39295;BME280;52361;52.100;5.248;2023-04-05T00:02:41;102471.0;;;4.87;96.29
39295;BME280;52361;52.100;5.248;2023-04-05T00:04:18;102459.99999999999;;;4.78;96.9
39295;BME280;52361;52.100;5.248;2023-04-05T00:07:30;102456.0;;;4.7;97.63
39295;BME280;52361;52.100;5.248;2023-04-05T00:10:42;102455.0;;;4.62;98.17
39295;BME280;52361;52.100;5.248;2023-04-05T00:13:57;102454.0;;;4.58;97.28
39295;BME280;52361;52.100;5.248;2023-04-05T00:15:36;102459.99999999999;;;4.46;99.74
39295;BME280;52361;52.100;5.248;2023-04-05T00:17:12;102454.0;;;4.49;99.06
39295;BME280;52361;52.100;5.248;2023-04-05T00:20:24;102453.0;;;4.54;98.06
39295;BME280;52361;52.100;5.248;2023-04-05T00:22:00;102451.0;;;4.57;97.65
39295;BME280;52361;52.100;5.248;2023-04-05T00:23:36;102453.0;;;4.51;97.19
39295;BME280;52361;52.100;5.248;2023-04-05T00:26:49;102454.0;;;4.45;97.55
39295;BME280;52361;52.100;5.248;2023-04-05T00:28:25;102461.99999999999;;;4.34;97.8
39295;BME280;52361;52.100;5.248;2023-04-05T00:30:01;102453.0;;;4.28;98.25
39295;BME280;52361;52.100;5.248;2023-04-05T00:31:37;102445.0;;;4.33;98.25
39295;BME280;52361;52.100;5.248;2023-04-05T00:34:49;102444.0;;;4.22;98.24
39295;BME280;52361;52.100;5.248;2023-04-05T00:36:26;102447.0;;;4.16;98.21
39295;BME280;52361;52.100;5.248;2023-04-05T00:38:02;102447.0;;;4.12;98.13
39295;BME280;52361;52.100;5.248;2023-04-05T00:41:14;102443.0;;;4.07;98.72
39295;BME280;52361;52.100;5.248;2023-04-05T00:42:50;102440.00000000001;;;4.07;98.79
39295;BME280;52361;52.100;5.248;2023-04-05T00:44:26;102439.00000000001;;;4.03;98.79
39295;BME280;52361;52.100;5.248;2023-04-05T00:47:40;102436.99999999999;;;3.99;98.34
39295;BME280;52361;52.100;5.248;2023-04-05T00:49:17;102441.00000000001;;;4.05;97.91
39295;BME280;52361;52.100;5.248;2023-04-05T00:50:53;102436.99999999999;;;3.97;98.48
39295;BME280;52361;52.100;5.248;2023-04-05T00:52:31;102436.99999999999;;;3.87;98.47
39295;BME280;52361;52.100;5.248;2023-04-05T00:55:45;102431.0;;;3.9;97.83
39295;BME280;52361;52.100;5.248;2023-04-05T00:57:21;102430.0;;;3.85;98.48
39295;BME280;52361;52.100;5.248;2023-04-05T00:58:58;102431.0;;;3.81;98.52
39295;BME280;52361;52.100;5.248;2023-04-05T01:02:17;102436.99999999999;;;3.77;98.72
39295;BME280;52361;52.100;5.248;2023-04-05T01:04:04;102428.0;;;3.77;98.73
39295;BME280;52361;52.100;5.248;2023-04-05T01:05:43;102429.0;;;3.67;98.83
39295;BME280;52361;52.100;5.248;2023-04-05T01:07:29;102425.0;;;3.65;99.07
39295;BME280;52361;52.100;5.248;2023-04-05T01:10:55;102429.0;;;3.62;98.92
39295;BME280;52361;52.100;5.248;2023-04-05T01:12:34;102424.0;;;3.57;99.18
39295;BME280;52361;52.100;5.248;2023-04-05T01:14:12;102420.0;;;3.56;99.61
39295;BME280;52361;52.100;5.248;2023-04-05T01:15:49;102422.0;;;3.47;99.53
39295;BME280;52361;52.100;5.248;2023-04-05T01:19:04;102418.0;;;3.5;99.7
39295;BME280;52361;52.100;5.248;2023-04-05T01:20:48;102419.0;;;3.48;99.15
39295;BME280;52361;52.100;5.248;2023-04-05T01:23:22;102414.00000000001;;;3.46;99.23
39295;BME280;52361;52.100;5.248;2023-04-05T01:25:48;102417.0;;;3.4;99.09
39295;BME280;52361;52.100;5.248;2023-04-05T01:27:39;102414.00000000001;;;3.32;99.63
39295;BME280;52361;52.100;5.248;2023-04-05T01:29:50;102415.00000000001;;;3.27;99.93
39295;BME280;52361;52.100;5.248;2023-04-05T01:31:31;102414.00000000001;;;3.19;100.0
39295;BME280;52361;52.100;5.248;2023-04-05T01:33:14;102408.99999999999;;;3.18;100.0
39295;BME280;52361;52.100;5.248;2023-04-05T01:35:03;102411.99999999999;;;3.15;100.0
39295;BME280;52361;52.100;5.248;2023-04-05T01:36:48;102400.0;;;3.17;100.0
39295;BME280;52361;52.100;5.248;2023-04-05T01:38:30;102402.0;;;3.19;100.0
39295;BME280;52361;52.100;5.248;2023-04-05T01:41:45;102407.0;;;3.16;100.0
39295;BME280;52361;52.100;5.248;2023-04-05T01:43:21;102402.0;;;3.12;100.0
39295;BME280;52361;52.100;5.248;2023-04-05T01:44:58;102401.0;;;3.1;100.0
39295;BME280;52361;52.100;5.248;2023-04-05T01:48:11;102400.0;;;3.11;100.0
39295;BME280;52361;52.100;5.248;2023-04-05T01:49:47;102403.0;;;3.09;100.0
39295;BME280;52361;52.100;5.248;2023-04-05T01:51:23;102396.0;;;3.08;100.0
39295;BME280;52361;52.100;5.248;2023-04-05T01:56:11;102394.0;;;3.07;99.78
39295;BME280;52361;52.100;5.248;2023-04-05T01:57:48;102398.0;;;3.02;99.93
39295;BME280;52361;52.100;5.248;2023-04-05T01:59:24;102396.0;;;2.99;100.0
39295;BME280;52361;52.100;5.248;2023-04-05T02:02:36;102390.0;;;2.96;100.0
39295;BME280;52361;52.100;5.248;2023-04-05T02:04:12;102385.0;;;2.92;100.0
39295;BME280;52361;52.100;5.248;2023-04-05T02:05:49;102386.0;;;2.88;100.0
39295;BME280;52361;52.100;5.248;2023-04-05T02:09:02;102384.0;;;2.82;100.0
39295;BME280;52361;52.100;5.248;2023-04-05T02:10:38;102382.0;;;2.87;100.0
39295;BME280;52361;52.100;5.248;2023-04-05T02:12:14;102381.0;;;2.81;100.0
39295;BME280;52361;52.100;5.248;2023-04-05T02:15:26;102380.0;;;2.82;100.0
39295;BME280;52361;52.100;5.248;2023-04-05T02:17:02;102377.0;;;2.77;100.0
39295;BME280;52361;52.100;5.248;2023-04-05T02:18:38;102380.0;;;2.77;100.0
39295;BME280;52361;52.100;5.248;2023-04-05T02:21:51;102380.0;;;2.75;100.0
39295;BME280;52361;52.100;5.248;2023-04-05T02:23:28;102374.0;;;2.75;100.0
39295;BME280;52361;52.100;5.248;2023-04-05T02:25:06;102378.0;;;2.73;100.0
39295;BME280;52361;52.100;5.248;2023-04-05T02:26:42;102373.0;;;2.73;100.0
39295;BME280;52361;52.100;5.248;2023-04-05T02:29:54;102369.0;;;2.75;100.0
39295;BME280;52361;52.100;5.248;2023-04-05T02:31:31;102366.0;;;2.73;99.98
39295;BME280;52361;52.100;5.248;2023-04-05T02:33:08;102366.0;;;2.66;99.99
39295;BME280;52361;52.100;5.248;2023-04-05T02:36:20;102367.0;;;2.58;100.0
39295;BME280;52361;52.100;5.248;2023-04-05T02:37:56;102363.0;;;2.6;99.96
39295;BME280;52361;52.100;5.248;2023-04-05T02:39:32;102364.0;;;2.57;100.0
39295;BME280;52361;52.100;5.248;2023-04-05T02:42:45;102359.0;;;2.54;100.0
39295;BME280;52361;52.100;5.248;2023-04-05T02:44:22;102356.0;;;2.5;100.0
39295;BME280;52361;52.100;5.248;2023-04-05T02:45:58;102358.0;;;2.52;100.0
39295;BME280;52361;52.100;5.248;2023-04-05T02:47:34;102365.0;;;2.44;100.0
39295;BME280;52361;52.100;5.248;2023-04-05T02:50:47;102358.0;;;2.46;100.0
39295;BME280;52361;52.100;5.248;2023-04-05T02:52:23;102360.0;;;2.48;100.0
39295;BME280;52361;52.100;5.248;2023-04-05T02:54:00;102355.0;;;2.41;100.0
39295;BME280;52361;52.100;5.248;2023-04-05T02:57:13;102352.0;;;2.39;100.0
39295;BME280;52361;52.100;5.248;2023-04-05T02:58:49;102350.0;;;2.42;100.0
39295;BME280;52361;52.100;5.248;2023-04-05T03:00:25;102348.0;;;2.34;100.0
39295;BME280;52361;52.100;5.248;2023-04-05T03:03:37;102344.0;;;2.34;100.0
39295;BME280;52361;52.100;5.248;2023-04-05T03:05:14;102341.0;;;2.29;100.0
39295;BME280;52361;52.100;5.248;2023-04-05T03:06:50;102345.0;;;2.11;100.0
39295;BME280;52361;52.100;5.248;2023-04-05T03:08:26;102342.0;;;1.99;100.0
39295;BME280;52361;52.100;5.248;2023-04-05T03:11:38;102340.0;;;2.0;100.0
39295;BME280;52361;52.100;5.248;2023-04-05T03:13:14;102335.0;;;2.12;100.0
39295;BME280;52361;52.100;5.248;2023-04-05T03:14:50;102328.0;;;2.19;100.0
39295;BME280;52361;52.100;5.248;2023-04-05T03:18:03;102333.0;;;2.19;100.0
39295;BME280;52361;52.100;5.248;2023-04-05T03:19:39;102330.0;;;2.23;100.0
39295;BME280;52361;52.100;5.248;2023-04-05T03:21:15;102330.0;;;2.25;100.0
39295;BME280;52361;52.100;5.248;2023-04-05T03:24:27;102323.0;;;2.25;100.0
39295;BME280;52361;52.100;5.248;2023-04-05T03:26:04;102326.0;;;2.23;100.0
39295;BME280;52361;52.100;5.248;2023-04-05T03:27:40;102334.0;;;2.31;100.0
39295;BME280;52361;52.100;5.248;2023-04-05T03:30:52;102328.0;;;2.19;100.0
39295;BME280;52361;52.100;5.248;2023-04-05T03:32:28;102327.0;;;2.17;100.0
39295;BME280;52361;52.100;5.248;2023-04-05T03:34:05;102324.0;;;2.09;100.0
39295;BME280;52361;52.100;5.248;2023-04-05T03:35:41;102325.0;;;2.13;100.0
39295;BME280;52361;52.100;5.248;2023-04-05T03:38:54;102330.0;;;2.21;100.0
39295;BME280;52361;52.100;5.248;2023-04-05T03:40:30;102327.0;;;2.25;100.0
39295;BME280;52361;52.100;5.248;2023-04-05T03:42:07;102328.0;;;2.25;100.0
39295;BME280;52361;52.100;5.248;2023-04-05T03:45:19;102320.0;;;2.14;100.0
39295;BME280;52361;52.100;5.248;2023-04-05T03:46:55;102322.0;;;2.06;100.0
39295;BME280;52361;52.100;5.248;2023-04-05T03:48:32;102319.0;;;2.05;100.0
39295;BME280;52361;52.100;5.248;2023-04-05T03:51:45;102316.0;;;1.95;100.0
39295;BME280;52361;52.100;5.248;2023-04-05T03:53:21;102319.0;;;1.98;100.0
39295;BME280;52361;52.100;5.248;2023-04-05T03:54:57;102319.0;;;2.02;100.0
39295;BME280;52361;52.100;5.248;2023-04-05T03:56:33;102318.0;;;1.98;100.0
39295;BME280;52361;52.100;5.248;2023-04-05T03:59:45;102321.0;;;2.02;100.0
39295;BME280;52361;52.100;5.248;2023-04-05T04:01:22;102323.0;;;1.99;100.0
39295;BME280;52361;52.100;5.248;2023-04-05T04:02:58;102318.0;;;2.05;100.0
39295;BME280;52361;52.100;5.248;2023-04-05T04:06:10;102326.0;;;1.99;100.0
39295;BME280;52361;52.100;5.248;2023-04-05T04:07:46;102330.0;;;1.93;100.0
39295;BME280;52361;52.100;5.248;2023-04-05T04:09:22;102325.0;;;1.9;100.0
39295;BME280;52361;52.100;5.248;2023-04-05T04:12:35;102324.0;;;1.84;100.0
39295;BME280;52361;52.100;5.248;2023-04-05T04:14:11;102324.0;;;1.72;100.0
39295;BME280;52361;52.100;5.248;2023-04-05T04:15:47;102321.0;;;1.75;100.0
39295;BME280;52361;52.100;5.248;2023-04-05T04:19:03;102320.0;;;1.7;100.0
39295;BME280;52361;52.100;5.248;2023-04-05T04:20:40;102320.0;;;1.64;100.0
39295;BME280;52361;52.100;5.248;2023-04-05T04:22:15;102320.0;;;1.63;100.0
39295;BME280;52361;52.100;5.248;2023-04-05T04:23:52;102317.0;;;1.57;100.0
39295;BME280;52361;52.100;5.248;2023-04-05T04:27:04;102321.0;;;1.46;100.0
39295;BME280;52361;52.100;5.248;2023-04-05T04:28:40;102317.0;;;1.52;100.0
39295;BME280;52361;52.100;5.248;2023-04-05T04:30:17;102318.0;;;1.55;100.0
39295;BME280;52361;52.100;5.248;2023-04-05T04:33:30;102311.0;;;1.57;100.0
39295;BME280;52361;52.100;5.248;2023-04-05T04:35:06;102311.0;;;1.61;100.0
39295;BME280;52361;52.100;5.248;2023-04-05T04:36:42;102317.0;;;1.62;100.0
39295;BME280;52361;52.100;5.248;2023-04-05T04:39:54;102317.0;;;1.63;100.0
39295;BME280;52361;52.100;5.248;2023-04-05T04:41:30;102316.0;;;1.62;100.0
39295;BME280;52361;52.100;5.248;2023-04-05T04:43:08;102319.0;;;1.66;100.0
39295;BME280;52361;52.100;5.248;2023-04-05T04:44:45;102319.0;;;1.66;100.0
39295;BME280;52361;52.100;5.248;2023-04-05T04:47:57;102314.0;;;1.58;100.0
39295;BME280;52361;52.100;5.248;2023-04-05T04:49:33;102319.0;;;1.55;100.0
39295;BME280;52361;52.100;5.248;2023-04-05T04:51:09;102319.0;;;1.52;100.0
39295;BME280;52361;52.100;5.248;2023-04-05T04:54:23;102315.0;;;1.55;100.0
39295;BME280;52361;52.100;5.248;2023-04-05T04:55:59;102314.0;;;1.57;100.0
39295;BME280;52361;52.100;5.248;2023-04-05T04:57:35;102313.0;;;1.64;100.0
39295;BME280;52361;52.100;5.248;2023-04-05T05:00:47;102314.0;;;1.68;100.0
39295;BME280;52361;52.100;5.248;2023-04-05T05:02:23;102312.0;;;1.72;100.0
39295;BME280;52361;52.100;5.248;2023-04-05T05:04:02;102313.0;;;1.79;100.0
39295;BME280;52361;52.100;5.248;2023-04-05T05:05:41;102313.0;;;1.77;100.0
39295;BME280;52361;52.100;5.248;2023-04-05T05:08:54;102314.0;;;1.73;100.0
39295;BME280;52361;52.100;5.248;2023-04-05T05:10:30;102312.0;;;1.71;100.0
39295;BME280;52361;52.100;5.248;2023-04-05T05:12:06;102311.0;;;1.69;100.0
39295;BME280;52361;52.100;5.248;2023-04-05T05:15:18;102310.0;;;1.67;100.0
39295;BME280;52361;52.100;5.248;2023-04-05T05:16:54;102302.0;;;1.65;100.0
39295;BME280;52361;52.100;5.248;2023-04-05T05:18:31;102306.0;;;1.65;100.0
39295;BME280;52361;52.100;5.248;2023-04-05T05:21:45;102310.0;;;1.53;100.0
39295;BME280;52361;52.100;5.248;2023-04-05T05:23:21;102306.0;;;1.48;100.0
39295;BME280;52361;52.100;5.248;2023-04-05T05:24:57;102305.0;;;1.43;100.0
39295;BME280;52361;52.100;5.248;2023-04-05T05:26:33;102310.0;;;1.47;100.0
39295;BME280;52361;52.100;5.248;2023-04-05T05:29:46;102307.0;;;1.39;100.0
39295;BME280;52361;52.100;5.248;2023-04-05T05:31:22;102308.0;;;1.38;100.0
39295;BME280;52361;52.100;5.248;2023-04-05T05:32:58;102309.0;;;1.44;100.0
39295;BME280;52361;52.100;5.248;2023-04-05T05:36:10;102306.0;;;1.49;100.0
39295;BME280;52361;52.100;5.248;2023-04-05T05:37:46;102306.0;;;1.51;100.0
39295;BME280;52361;52.100;5.248;2023-04-05T05:39:22;102305.0;;;1.52;100.0
39295;BME280;52361;52.100;5.248;2023-04-05T05:42:35;102303.0;;;1.56;100.0
39295;BME280;52361;52.100;5.248;2023-04-05T05:44:11;102307.0;;;1.54;100.0
39295;BME280;52361;52.100;5.248;2023-04-05T05:45:48;102305.0;;;1.48;100.0
39295;BME280;52361;52.100;5.248;2023-04-05T05:47:24;102305.0;;;1.45;100.0
39295;BME280;52361;52.100;5.248;2023-04-05T05:50:37;102310.0;;;1.59;100.0
39295;BME280;52361;52.100;5.248;2023-04-05T05:52:13;102312.0;;;1.69;100.0
39295;BME280;52361;52.100;5.248;2023-04-05T05:53:49;102314.0;;;1.85;100.0
39295;BME280;52361;52.100;5.248;2023-04-05T05:57:01;102315.0;;;2.02;100.0
39295;BME280;52361;52.100;5.248;2023-04-05T05:58:37;102313.0;;;2.09;100.0
39295;BME280;52361;52.100;5.248;2023-04-05T06:00:15;102314.0;;;2.17;100.0
39295;BME280;52361;52.100;5.248;2023-04-05T06:03:30;102316.0;;;2.21;100.0
39295;BME280;52361;52.100;5.248;2023-04-05T06:05:06;102315.0;;;2.39;100.0
39295;BME280;52361;52.100;5.248;2023-04-05T06:06:42;102317.0;;;2.44;100.0
39295;BME280;52361;52.100;5.248;2023-04-05T06:08:18;102317.0;;;2.48;100.0
39295;BME280;52361;52.100;5.248;2023-04-05T06:11:30;102314.0;;;2.56;100.0
39295;BME280;52361;52.100;5.248;2023-04-05T06:13:06;102320.0;;;2.71;100.0
39295;BME280;52361;52.100;5.248;2023-04-05T06:14:43;102313.0;;;2.82;100.0
39295;BME280;52361;52.100;5.248;2023-04-05T06:17:55;102315.0;;;2.94;100.0
39295;BME280;52361;52.100;5.248;2023-04-05T06:19:31;102313.0;;;3.09;100.0
39295;BME280;52361;52.100;5.248;2023-04-05T06:21:07;102314.0;;;3.39;99.07
39295;BME280;52361;52.100;5.248;2023-04-05T06:24:19;102316.0;;;3.66;95.92
39295;BME280;52361;52.100;5.248;2023-04-05T06:25:56;102311.0;;;3.94;95.5
39295;BME280;52361;52.100;5.248;2023-04-05T06:27:32;102309.0;;;4.16;94.03
39295;BME280;52361;52.100;5.248;2023-04-05T06:30:44;102306.0;;;4.37;92.49
39295;BME280;52361;52.100;5.248;2023-04-05T06:32:20;102303.0;;;4.63;88.91
39295;BME280;52361;52.100;5.248;2023-04-05T06:33:56;102307.0;;;4.91;84.99
39295;BME280;52361;52.100;5.248;2023-04-05T06:35:32;102311.0;;;5.12;81.24
39295;BME280;52361;52.100;5.248;2023-04-05T06:38:45;102310.0;;;5.33;80.17
39295;BME280;52361;52.100;5.248;2023-04-05T06:40:21;102316.0;;;5.55;79.86
39295;BME280;52361;52.100;5.248;2023-04-05T06:41:57;102309.0;;;5.7;78.02
39295;BME280;52361;52.100;5.248;2023-04-05T06:45:10;102310.0;;;5.93;77.19
39295;BME280;52361;52.100;5.248;2023-04-05T06:46:46;102306.0;;;6.11;75.62
39295;BME280;52361;52.100;5.248;2023-04-05T06:48:23;102305.0;;;6.24;74.27
39295;BME280;52361;52.100;5.248;2023-04-05T06:51:35;102303.0;;;6.43;71.94
39295;BME280;52361;52.100;5.248;2023-04-05T06:53:11;102305.0;;;6.51;70.66
39295;BME280;52361;52.100;5.248;2023-04-05T06:54:47;102303.0;;;6.84;71.67
39295;BME280;52361;52.100;5.248;2023-04-05T06:57:59;102300.0;;;6.94;69.33
39295;BME280;52361;52.100;5.248;2023-04-05T06:59:36;102302.0;;;7.12;69.45
39295;BME280;52361;52.100;5.248;2023-04-05T07:01:12;102301.0;;;7.25;68.02
39295;BME280;52361;52.100;5.248;2023-04-05T07:02:48;102301.0;;;7.45;67.22
39295;BME280;52361;52.100;5.248;2023-04-05T07:06:00;102305.0;;;7.76;66.11
39295;BME280;52361;52.100;5.248;2023-04-05T07:07:37;102298.0;;;7.97;65.94
39295;BME280;52361;52.100;5.248;2023-04-05T07:09:13;102297.0;;;8.05;64.44
39295;BME280;52361;52.100;5.248;2023-04-05T07:12:27;102303.0;;;8.34;63.46
39295;BME280;52361;52.100;5.248;2023-04-05T07:14:03;102305.0;;;8.59;62.62
39295;BME280;52361;52.100;5.248;2023-04-05T07:15:39;102300.0;;;8.8;61.17
39295;BME280;52361;52.100;5.248;2023-04-05T07:18:51;102293.0;;;8.92;60.5
39295;BME280;52361;52.100;5.248;2023-04-05T07:20:28;102296.0;;;9.09;60.69
39295;BME280;52361;52.100;5.248;2023-04-05T07:22:04;102300.0;;;9.31;58.65
39295;BME280;52361;52.100;5.248;2023-04-05T07:23:40;102301.0;;;9.32;58.87
39295;BME280;52361;52.100;5.248;2023-04-05T07:26:52;102298.0;;;9.39;57.36
39295;BME280;52361;52.100;5.248;2023-04-05T07:28:28;102300.0;;;9.48;58.07
39295;BME280;52361;52.100;5.248;2023-04-05T07:30:06;102301.0;;;9.68;57.6
39295;BME280;52361;52.100;5.248;2023-04-05T07:33:19;102297.0;;;9.6;60.3
39295;BME280;52361;52.100;5.248;2023-04-05T07:34:55;102294.0;;;9.8;56.35
39295;BME280;52361;52.100;5.248;2023-04-05T07:36:31;102296.0;;;9.99;55.57
39295;BME280;52361;52.100;5.248;2023-04-05T07:39:43;102293.0;;;10.08;53.08
39295;BME280;52361;52.100;5.248;2023-04-05T07:41:20;102292.0;;;10.49;52.81
39295;BME280;52361;52.100;5.248;2023-04-05T07:42:55;102292.0;;;10.56;50.65
39295;BME280;52361;52.100;5.248;2023-04-05T07:47:44;102287.0;;;10.99;53.7
39295;BME280;52361;52.100;5.248;2023-04-05T07:49:23;102286.0;;;11.17;54.92
39295;BME280;52361;52.100;5.248;2023-04-05T07:51:02;102288.0;;;11.49;50.9
39295;BME280;52361;52.100;5.248;2023-04-05T07:54:14;102287.0;;;11.3;50.4
39295;BME280;52361;52.100;5.248;2023-04-05T07:55:50;102284.0;;;11.18;52.33
39295;BME280;52361;52.100;5.248;2023-04-05T07:57:27;102283.0;;;11.2;51.23
39295;BME280;52361;52.100;5.248;2023-04-05T08:00:40;102285.0;;;11.37;47.2
39295;BME280;52361;52.100;5.248;2023-04-05T08:02:16;102284.0;;;11.41;47.92
39295;BME280;52361;52.100;5.248;2023-04-05T08:03:52;102284.0;;;11.25;47.64
39295;BME280;52361;52.100;5.248;2023-04-05T08:05:29;102285.0;;;11.47;47.93
39295;BME280;52361;52.100;5.248;2023-04-05T08:08:42;102288.0;;;11.4;50.13
39295;BME280;52361;52.100;5.248;2023-04-05T08:10:19;102280.0;;;11.58;49.95
39295;BME280;52361;52.100;5.248;2023-04-05T08:11:55;102283.0;;;11.47;49.73
39295;BME280;52361;52.100;5.248;2023-04-05T08:15:08;102282.0;;;11.83;49.2
39295;BME280;52361;52.100;5.248;2023-04-05T08:16:45;102278.0;;;11.97;45.32
39295;BME280;52361;52.100;5.248;2023-04-05T08:18:21;102278.0;;;11.94;45.38
39295;BME280;52361;52.100;5.248;2023-04-05T08:21:34;102280.0;;;11.89;48.05
39295;BME280;52361;52.100;5.248;2023-04-05T08:23:10;102280.0;;;11.95;45.9
39295;BME280;52361;52.100;5.248;2023-04-05T08:24:46;102275.0;;;12.26;45.41
39295;BME280;52361;52.100;5.248;2023-04-05T08:26:22;102267.0;;;12.22;46.29
39295;BME280;52361;52.100;5.248;2023-04-05T08:29:34;102276.0;;;12.24;46.22
39295;BME280;52361;52.100;5.248;2023-04-05T08:31:10;102276.0;;;12.22;46.03
39295;BME280;52361;52.100;5.248;2023-04-05T08:32:46;102275.0;;;12.13;41.71
39295;BME280;52361;52.100;5.248;2023-04-05T08:36:03;102273.0;;;12.12;42.9
39295;BME280;52361;52.100;5.248;2023-04-05T08:37:38;102274.0;;;12.5;41.57
39295;BME280;52361;52.100;5.248;2023-04-05T08:39:15;102266.0;;;12.38;41.54
39295;BME280;52361;52.100;5.248;2023-04-05T08:42:30;102269.0;;;12.57;41.82
39295;BME280;52361;52.100;5.248;2023-04-05T08:44:09;102269.0;;;12.6;41.17
39295;BME280;52361;52.100;5.248;2023-04-05T08:45:48;102260.0;;;12.36;41.19
39295;BME280;52361;52.100;5.248;2023-04-05T08:47:27;102260.0;;;12.6;42.98
39295;BME280;52361;52.100;5.248;2023-04-05T08:50:48;102261.0;;;12.85;42.83
39295;BME280;52361;52.100;5.248;2023-04-05T08:52:25;102258.0;;;12.8;40.42
39295;BME280;52361;52.100;5.248;2023-04-05T08:54:01;102259.0;;;12.88;39.29
39295;BME280;52361;52.100;5.248;2023-04-05T08:57:15;102259.0;;;12.97;41.46
39295;BME280;52361;52.100;5.248;2023-04-05T08:58:57;102259.0;;;12.76;40.68
39295;BME280;52361;52.100;5.248;2023-04-05T09:00:36;102257.0;;;13.09;40.51
39295;BME280;52361;52.100;5.248;2023-04-05T09:02:14;102255.0;;;13.19;40.42
39295;BME280;52361;52.100;5.248;2023-04-05T09:05:31;102257.0;;;13.12;40.49
39295;BME280;52361;52.100;5.248;2023-04-05T09:07:13;102253.0;;;13.11;38.74
39295;BME280;52361;52.100;5.248;2023-04-05T09:08:49;102257.0;;;13.07;40.53
39295;BME280;52361;52.100;5.248;2023-04-05T09:10:26;102255.0;;;12.82;40.4
39295;BME280;52361;52.100;5.248;2023-04-05T09:13:42;102258.0;;;12.73;39.75
39295;BME280;52361;52.100;5.248;2023-04-05T09:15:18;102258.0;;;13.17;39.37
39295;BME280;52361;52.100;5.248;2023-04-05T09:16:57;102258.0;;;12.78;42.3
39295;BME280;52361;52.100;5.248;2023-04-05T09:20:11;102258.0;;;13.18;41.86
39295;BME280;52361;52.100;5.248;2023-04-05T09:22:04;102255.0;;;13.25;40.15
39295;BME280;52361;52.100;5.248;2023-04-05T09:23:50;102255.0;;;13.4;39.62
39295;BME280;52361;52.100;5.248;2023-04-05T09:25:36;102249.0;;;13.39;39.53
39295;BME280;52361;52.100;5.248;2023-04-05T09:27:13;102249.0;;;14.02;38.42
39295;BME280;52361;52.100;5.248;2023-04-05T09:30:26;102248.0;;;14.08;40.43
39295;BME280;52361;52.100;5.248;2023-04-05T09:32:03;102244.0;;;14.08;38.17
39295;BME280;52361;52.100;5.248;2023-04-05T09:33:40;102242.0;;;14.1;39.29
39295;BME280;52361;52.100;5.248;2023-04-05T09:36:56;102244.0;;;13.81;37.64
39295;BME280;52361;52.100;5.248;2023-04-05T09:38:48;102246.0;;;13.84;36.67
39295;BME280;52361;52.100;5.248;2023-04-05T09:40:39;102239.0;;;13.98;38.53
39295;BME280;52361;52.100;5.248;2023-04-05T09:42:17;102239.0;;;14.1;36.64
39295;BME280;52361;52.100;5.248;2023-04-05T09:43:54;102239.0;;;14.23;36.51
39295;BME280;52361;52.100;5.248;2023-04-05T09:47:14;102236.0;;;14.33;36.62
39295;BME280;52361;52.100;5.248;2023-04-05T09:48:51;102234.0;;;14.37;37.67
39295;BME280;52361;52.100;5.248;2023-04-05T09:50:27;102231.0;;;14.56;36.93
39295;BME280;52361;52.100;5.248;2023-04-05T09:53:55;102228.0;;;14.69;35.79
39295;BME280;52361;52.100;5.248;2023-04-05T09:55:32;102228.0;;;14.83;37.14
39295;BME280;52361;52.100;5.248;2023-04-05T09:57:09;102226.0;;;15.21;36.26
39295;BME280;52361;52.100;5.248;2023-04-05T09:58:49;102227.0;;;15.07;36.44
39295;BME280;52361;52.100;5.248;2023-04-05T10:02:04;102230.0;;;15.45;37.53
39295;BME280;52361;52.100;5.248;2023-04-05T10:03:45;102231.0;;;15.7;35.47
39295;BME280;52361;52.100;5.248;2023-04-05T10:05:23;102224.0;;;15.87;35.46
39295;BME280;52361;52.100;5.248;2023-04-05T10:06:59;102227.0;;;16.02;36.42
39295;BME280;52361;52.100;5.248;2023-04-05T10:10:12;102228.0;;;16.56;34.79
39295;BME280;52361;52.100;5.248;2023-04-05T10:11:49;102219.0;;;16.93;32.9
39295;BME280;52361;52.100;5.248;2023-04-05T10:13:26;102216.0;;;16.54;33.85
39295;BME280;52361;52.100;5.248;2023-04-05T10:16:44;102215.0;;;16.45;33.96
39295;BME280;52361;52.100;5.248;2023-04-05T10:18:39;102218.0;;;16.95;33.28
39295;BME280;52361;52.100;5.248;2023-04-05T10:20:22;102214.0;;;17.06;34.28
39295;BME280;52361;52.100;5.248;2023-04-05T10:22:01;102210.0;;;16.75;32.6
39295;BME280;52361;52.100;5.248;2023-04-05T10:23:41;102209.0;;;16.77;32.5
39295;BME280;52361;52.100;5.248;2023-04-05T10:27:29;102209.0;;;16.7;35.81
39295;BME280;52361;52.100;5.248;2023-04-05T10:29:11;102203.0;;;16.45;34.67
39295;BME280;52361;52.100;5.248;2023-04-05T10:30:58;102203.0;;;16.64;35.17
39295;BME280;52361;52.100;5.248;2023-04-05T10:32:45;102198.0;;;16.56;35.78
39295;BME280;52361;52.100;5.248;2023-04-05T10:34:41;102200.0;;;16.71;34.81
39295;BME280;52361;52.100;5.248;2023-04-05T10:36:24;102193.0;;;16.82;34.92
39295;BME280;52361;52.100;5.248;2023-04-05T10:38:23;102195.0;;;16.93;35.33
39295;BME280;52361;52.100;5.248;2023-04-05T10:41:40;102193.0;;;16.82;33.43
39295;BME280;52361;52.100;5.248;2023-04-05T10:43:24;102194.0;;;16.68;35.04
39295;BME280;52361;52.100;5.248;2023-04-05T10:45:01;102193.0;;;17.05;34.67
39295;BME280;52361;52.100;5.248;2023-04-05T10:46:43;102194.0;;;17.48;36.15
39295;BME280;52361;52.100;5.248;2023-04-05T10:50:20;102195.0;;;17.09;34.71
39295;BME280;52361;52.100;5.248;2023-04-05T10:51:57;102186.0;;;17.23;35.57
39295;BME280;52361;52.100;5.248;2023-04-05T10:53:36;102183.0;;;17.28;33.57
39295;BME280;52361;52.100;5.248;2023-04-05T10:55:15;102181.0;;;17.32;36.24
39295;BME280;52361;52.100;5.248;2023-04-05T10:58:28;102174.0;;;17.47;35.39
39295;BME280;52361;52.100;5.248;2023-04-05T11:00:07;102180.0;;;17.34;35.46
39295;BME280;52361;52.100;5.248;2023-04-05T11:01:46;102180.0;;;17.82;34.18
39295;BME280;52361;52.100;5.248;2023-04-05T11:03:55;102183.0;;;17.36;33.06
39295;BME280;52361;52.100;5.248;2023-04-05T11:05:32;102176.0;;;17.06;32.1
39295;BME280;52361;52.100;5.248;2023-04-05T11:08:49;102171.0;;;17.18;34.21
39295;BME280;52361;52.100;5.248;2023-04-05T11:10:29;102181.0;;;17.52;33.96
39295;BME280;52361;52.100;5.248;2023-04-05T11:12:06;102180.0;;;17.09;34.46